Stacja Pogody
Warszawa Praga-Północ

Szerokość 52°15'43"N Długość 21°01'22"E Wysokość 89m n.p.m.


45 dzień roku. Do końca pozostalo 321 dni.
Wschód Słońca 06:55 Górowanie Słońca 11:50 Zachód Słońca 16:44 wodnik
Data juliańska 2457433.240 Odległość Słońca 147726989 km Średn. kątowa Słońca 0,324°
Wschód Księżyca 09:45 Zachód Księżyca 00:00 Wiek Księżyca 7 dni Moon
Widoczność Księżyca 43,50% Odległość Księżyca 365433 km Średn. kątowa Księżyca 0,327°
Dzień krótszy od najdłuższego o: 06:58 Długość dnia 09:49 Imieniny Cyryla, Metodego, Walentego



  Aktualizacja: 10-02-2016 15:42:13
TEMPERATURA
Aktualnie: 8.2°C →
Temperatura odczuwalna:6.3°C
Punkt rosy8.1°C
WIATR
Średnia prędkość: 7.2km/h ↑
Prędkość w podmuchach:11.2km/h
Przepływ w ciągu doby:km
Kierunek wiatru:180°
CIŚNIENIE
Względne:990.3hPa
Bezwzględne:978.4hPa
Trend ciśnienia:stabilne
WILGOTNOŚĆ
Wilgotność względna: 99% →
Podstawa chmur82m
DESZCZ
Aktualnie: 0.0mm
W ostatniej godzinie: 0.0mm
Dzisiaj:0.0mm
W tym miesiącu:12.3mm
METAR
EPWA 141630Z 14007KT 9999 BKN038 07/04 Q0995 NOSIG
Ostrzeżenia burzowe





a  a a